Time;durP1;ratioP1;P1;durP2;ratioP2;P2;SDS_P1;SDS_P2;PMS_P1;PMS_P2;Temp;Humidity;BMP_temperature;BMP_pressure;BME280_temperature;BME280_humidity;BME280_pressure;Samples;Min_cycle;Max_cycle;Signal;HPM_P1;HPM_P2
2023/03/24 00:01:56;;;;;;;5.20;4.13;;;15.60;1.00;;;;;;5112578;28;20023;-55
2023/03/24 00:04:23;;;;;;;4.32;3.92;;;15.40;1.00;;;;;;5111839;28;20042;-52
2023/03/24 00:06:51;;;;;;;3.75;3.45;;;15.50;1.00;;;;;;5114605;27;20063;-51
2023/03/24 00:09:17;;;;;;;4.15;3.75;;;15.60;1.00;;;;;;5123766;27;20034;-54
2023/03/24 00:11:43;;;;;;;4.80;4.40;;;15.60;1.00;;;;;;5117667;27;20546;-52
2023/03/24 00:14:11;;;;;;;5.07;4.00;;;15.50;1.00;;;;;;5114194;28;20020;-53
2023/03/24 00:16:41;;;;;;;4.45;4.05;;;15.60;1.00;;;;;;5118424;27;20020;-49
2023/03/24 00:19:12;;;;;;;4.13;3.83;;;15.50;1.00;;;;;;5123665;27;20441;-52
2023/03/24 00:21:38;;;;;;;5.45;4.40;;;15.70;1.00;;;;;;5102816;28;20055;-50
2023/03/24 00:24:06;;;;;;;4.53;4.13;;;15.70;1.00;;;;;;5119060;27;20061;-53
2023/03/24 00:26:34;;;;;;;4.03;3.67;;;15.70;1.00;;;;;;5114028;28;20028;-54
2023/03/24 00:29:00;;;;;;;6.43;4.15;;;15.70;1.00;;;;;;5123142;27;20117;-54
2023/03/24 00:31:26;;;;;;;4.70;4.25;;;15.70;1.00;;;;;;5114736;28;20392;-53
2023/03/24 00:33:53;;;;;;;4.85;4.35;;;15.70;1.00;;;;;;5112170;27;20039;-51
2023/03/24 00:36:20;;;;;;;3.65;3.20;;;15.70;1.00;;;;;;5116212;27;20019;-56
2023/03/24 00:38:48;;;;;;;4.97;3.92;;;15.60;1.00;;;;;;5108802;27;20499;-51
2023/03/24 00:41:16;;;;;;;4.07;3.10;;;15.70;1.00;;;;;;5092143;27;20038;-51
2023/03/24 00:43:42;;;;;;;4.45;3.95;;;15.80;1.00;;;;;;5117737;27;20023;-52
2023/03/24 00:46:12;;;;;;;4.47;3.60;;;15.90;1.00;;;;;;5100504;28;20070;-55
2023/03/24 00:48:40;;;;;;;4.03;3.58;;;15.80;1.00;;;;;;5113725;28;20023;-55
2023/03/24 00:51:09;;;;;;;4.28;3.85;;;15.80;1.00;;;;;;5115963;27;20027;-54
2023/03/24 00:53:36;;;;;;;3.17;2.88;;;15.70;1.00;;;;;;5116970;27;20439;-54
2023/03/24 00:56:02;;;;;;;4.63;3.08;;;15.60;1.00;;;;;;5122054;27;20028;-51
2023/03/24 00:58:28;;;;;;;3.83;3.05;;;15.60;1.00;;;;;;5114916;27;20154;-52
2023/03/24 01:00:56;;;;;;;3.30;2.95;;;15.70;1.00;;;;;;5113795;28;20043;-55
2023/03/24 01:03:26;;;;;;;3.42;3.13;;;15.80;1.00;;;;;;5104974;27;20113;-53
2023/03/24 01:06:01;;;;;;;3.00;2.70;;;15.80;1.00;;;;;;5113421;28;20040;-51
2023/03/24 01:08:27;;;;;;;;;;;15.70;1.00;;;;;;5122406;27;20031;-53
2023/03/24 01:10:53;;;;;;;3.22;2.78;;;15.50;1.00;;;;;;5118792;28;20304;-54
2023/03/24 01:13:22;;;;;;;2.70;2.50;;;15.60;1.00;;;;;;5123270;27;20023;-50
2023/03/24 01:15:48;;;;;;;3.53;2.90;;;15.70;1.00;;;;;;5113471;28;20072;-53
2023/03/24 01:18:15;;;;;;;3.42;3.13;;;15.80;1.00;;;;;;5119822;28;20028;-50
2023/03/24 01:20:45;;;;;;;3.90;2.85;;;15.80;1.00;;;;;;5113224;28;20035;-56
2023/03/24 01:23:13;;;;;;;3.20;2.92;;;15.80;1.00;;;;;;5094684;28;20020;-52
2023/03/24 01:25:44;;;;;;;3.05;2.78;;;15.80;1.00;;;;;;5106834;28;20149;-55
2023/03/24 01:28:11;;;;;;;3.15;2.95;;;15.80;1.00;;;;;;5112836;28;20396;-55
2023/03/24 01:30:36;;;;;;;2.70;2.50;;;15.90;1.00;;;;;;5120783;28;20191;-54
2023/03/24 01:33:02;;;;;;;2.78;2.58;;;15.90;1.00;;;;;;5112488;28;20150;-55
2023/03/24 01:35:28;;;;;;;2.75;2.55;;;15.90;1.00;;;;;;5127233;28;20062;-55
2023/03/24 01:37:53;;;;;;;3.08;2.53;;;15.90;1.00;;;;;;5109509;28;20461;-56
2023/03/24 01:40:40;;;;;;;3.30;3.00;;;16.00;1.00;;;;;;5124801;28;20028;-54
2023/03/24 01:43:10;;;;;;;4.30;3.08;;;16.00;1.00;;;;;;5118355;28;20119;-55
2023/03/24 01:45:38;;;;;;;3.38;2.75;;;15.90;1.00;;;;;;5118384;28;20093;-53
2023/03/24 01:48:10;;;;;;;3.00;2.70;;;16.00;1.00;;;;;;5101997;28;20472;-51
2023/03/24 01:50:36;;;;;;;2.97;2.67;;;15.90;1.00;;;;;;5109899;28;20028;-55
2023/03/24 01:53:03;;;;;;;5.53;3.20;;;15.90;1.00;;;;;;5111284;28;20421;-55
2023/03/24 01:55:30;;;;;;;2.97;2.72;;;15.90;1.00;;;;;;5114189;28;20024;-51
2023/03/24 01:57:59;;;;;;;3.40;3.10;;;15.90;1.00;;;;;;5101052;28;20032;-53
2023/03/24 02:00:25;;;;;;;3.88;3.00;;;15.90;1.00;;;;;;5119580;28;20031;-56
2023/03/24 02:02:57;;;;;;;4.18;3.30;;;15.90;1.00;;;;;;5114368;28;20372;-50
2023/03/24 02:05:28;;;;;;;3.65;3.28;;;15.80;1.00;;;;;;5094766;28;20031;-52
2023/03/24 02:08:25;;;;;;;3.00;2.58;;;15.90;1.00;;;;;;5114822;28;20039;-54
2023/03/24 02:10:53;;;;;;;2.70;2.50;;;15.80;1.00;;;;;;5101152;28;20016;-57
2023/03/24 02:13:19;;;;;;;3.33;3.00;;;15.80;1.00;;;;;;5120861;28;20024;-54
2023/03/24 02:16:21;;;;;;;3.35;3.05;;;15.80;1.00;;;;;;5113073;28;20039;-54
2023/03/24 02:19:14;;;;;;;2.47;2.28;;;15.80;1.00;;;;;;5113737;28;20019;-55
2023/03/24 02:22:28;;;;;;;2.65;2.33;;;16.00;1.00;;;;;;5112072;28;20028;-55
2023/03/24 02:24:57;;;;;;;2.50;2.30;;;15.90;1.00;;;;;;5107862;28;20071;-53
2023/03/24 02:27:28;;;;;;;3.65;3.17;;;15.90;1.00;;;;;;5115504;27;20028;-50
2023/03/24 02:30:25;;;;;;;2.65;2.38;;;15.90;1.00;;;;;;5124245;27;20028;-55
2023/03/24 02:33:06;;;;;;;4.18;2.50;;;16.00;1.00;;;;;;5106307;27;20024;-53
2023/03/24 02:35:57;;;;;;;3.38;2.63;;;15.90;1.00;;;;;;5114370;27;20035;-53
2023/03/24 02:38:36;;;;;;;3.72;2.50;;;15.90;1.00;;;;;;5106135;27;20037;-55
2023/03/24 02:41:17;;;;;;;3.72;2.35;;;16.00;1.00;;;;;;5115714;27;20087;-54
2023/03/24 02:43:57;;;;;;;2.33;2.13;;;15.90;1.00;;;;;;5127077;27;20015;-52
2023/03/24 02:46:43;;;;;;;2.60;2.40;;;16.00;1.00;;;;;;5115914;28;20039;-51
2023/03/24 02:49:40;;;;;;;2.50;2.03;;;16.00;1.00;;;;;;5117074;27;20475;-54
2023/03/24 02:52:11;;;;;;;2.33;2.20;;;15.90;1.00;;;;;;5124542;27;20381;-52
2023/03/24 02:54:48;;;;;;;3.35;2.42;;;15.80;1.00;;;;;;5121054;27;20023;-51
2023/03/24 02:57:42;;;;;;;4.18;2.28;;;15.80;1.00;;;;;;5115482;28;20484;-54
2023/03/24 03:00:12;;;;;;;4.32;2.22;;;15.90;1.00;;;;;;5102908;28;20031;-54
2023/03/24 03:02:45;;;;;;;2.20;1.90;;;15.90;1.00;;;;;;5098370;27;20024;-54
2023/03/24 03:05:20;;;;;;;3.45;2.25;;;16.00;1.00;;;;;;5115610;28;20038;-52
2023/03/24 03:07:49;;;;;;;1.77;1.67;;;16.00;1.00;;;;;;5113545;28;20032;-53
2023/03/24 03:10:38;;;;;;;2.65;1.83;;;15.90;1.00;;;;;;5128222;27;20031;-54
2023/03/24 03:13:23;;;;;;;1.75;1.65;;;15.90;1.00;;;;;;5117252;27;20084;-51
2023/03/24 03:15:52;;;;;;;2.85;1.70;;;15.90;1.00;;;;;;5114481;27;20483;-55
2023/03/24 03:18:29;;;;;;;2.40;2.08;;;15.90;1.00;;;;;;5119105;27;20414;-52
2023/03/24 03:21:03;;;;;;;2.00;1.90;;;15.90;1.00;;;;;;5115323;28;20106;-54
2023/03/24 03:23:40;;;;;;;2.10;1.33;;;15.90;1.00;;;;;;5112945;27;20016;-54
2023/03/24 03:26:12;;;;;;;2.10;1.60;;;15.90;1.00;;;;;;5105894;28;20039;-51
2023/03/24 03:28:48;;;;;;;1.30;1.20;;;15.90;1.00;;;;;;5118869;27;20020;-54
2023/03/24 03:31:20;;;;;;;1.35;1.17;;;15.90;1.00;;;;;;5124542;27;20033;-55
2023/03/24 03:33:57;;;;;;;1.00;1.00;;;15.90;1.00;;;;;;5122556;27;20106;-55
2023/03/24 03:36:32;;;;;;;1.35;1.25;;;15.90;1.00;;;;;;5115136;28;20028;-54
2023/03/24 03:39:24;;;;;;;1.20;1.20;;;16.00;1.00;;;;;;5122474;27;20322;-54
2023/03/24 03:41:49;;;;;;;1.45;1.35;;;15.90;1.00;;;;;;5114865;28;20028;-55
2023/03/24 03:44:15;;;;;;;1.40;1.30;;;16.00;1.00;;;;;;5120068;27;20058;-53
2023/03/24 03:46:41;;;;;;;1.98;1.38;;;15.90;1.00;;;;;;5114750;28;20027;-50
2023/03/24 03:49:07;;;;;;;1.30;1.20;;;15.90;1.00;;;;;;5121670;27;20039;-55
2023/03/24 03:51:34;;;;;;;1.42;1.27;;;15.90;1.00;;;;;;5104300;28;20481;-53
2023/03/24 03:54:04;;;;;;;1.25;1.20;;;15.90;1.00;;;;;;5121399;27;20035;-53
2023/03/24 03:56:32;;;;;;;1.85;1.38;;;15.90;1.00;;;;;;5114695;28;20061;-51
2023/03/24 03:58:58;;;;;;;1.63;1.40;;;15.90;1.00;;;;;;5122575;27;20027;-53
2023/03/24 04:01:28;;;;;;;1.73;1.30;;;15.80;1.00;;;;;;5114562;28;20016;-50
2023/03/24 04:04:19;;;;;;;1.52;1.25;;;15.80;1.00;;;;;;5118658;27;20015;-55
2023/03/24 04:06:52;;;;;;;1.55;1.30;;;15.80;1.00;;;;;;5115087;27;20373;-55
2023/03/24 04:09:23;;;;;;;2.27;1.33;;;15.80;1.00;;;;;;5120186;27;20035;-52
2023/03/24 04:12:07;;;;;;;1.75;1.63;;;15.80;1.00;;;;;;5114210;28;20069;-54
2023/03/24 04:15:11;;;;;;;1.58;1.48;;;15.80;1.00;;;;;;5107733;28;20031;-54
2023/03/24 04:18:03;;;;;;;2.10;1.52;;;15.80;1.00;;;;;;5100239;27;20215;-54
2023/03/24 04:20:49;;;;;;;1.55;1.45;;;15.70;1.00;;;;;;5100153;28;20024;-51
2023/03/24 04:23:32;;;;;;;2.17;1.30;;;15.70;1.00;;;;;;5124646;27;20020;-55
2023/03/24 04:26:40;;;;;;;2.08;1.52;;;15.70;1.00;;;;;;5113939;28;20023;-51
2023/03/24 04:29:19;;;;;;;2.60;1.65;;;15.80;1.00;;;;;;5104093;27;20036;-49
2023/03/24 04:32:10;;;;;;;2.15;1.95;;;15.70;1.00;;;;;;5113905;28;20024;-51
2023/03/24 04:34:43;;;;;;;1.48;1.38;;;15.70;1.00;;;;;;5115420;27;20046;-53
2023/03/24 04:37:15;;;;;;;2.53;1.77;;;15.60;1.00;;;;;;5116456;27;20405;-54
2023/03/24 04:39:44;;;;;;;2.40;1.90;;;15.60;1.00;;;;;;5121568;27;20091;-55
2023/03/24 04:42:33;;;;;;;1.77;1.67;;;15.70;1.00;;;;;;5110363;28;20027;-50
2023/03/24 04:45:00;;;;;;;1.88;1.65;;;15.50;1.00;;;;;;5105510;28;20042;-55
2023/03/24 04:47:30;;;;;;;2.47;1.55;;;15.70;1.00;;;;;;5112388;27;20046;-56
2023/03/24 04:50:05;;;;;;;2.70;1.58;;;15.70;1.00;;;;;;5122044;27;20483;-50
2023/03/24 04:52:31;;;;;;;1.77;1.67;;;15.80;1.00;;;;;;5113176;27;20027;-51
2023/03/24 04:54:57;;;;;;;5.72;2.47;;;15.80;1.00;;;;;;5122185;27;20118;-51
2023/03/24 04:57:22;;;;;;;2.55;2.30;;;15.70;1.00;;;;;;5110880;28;20072;-55
2023/03/24 04:59:48;;;;;;;3.00;1.80;;;15.70;1.00;;;;;;5120260;27;20020;-55
2023/03/24 05:02:14;;;;;;;2.65;1.85;;;15.70;1.00;;;;;;5115239;27;20307;-55
2023/03/24 05:04:40;;;;;;;1.75;1.65;;;15.70;1.00;;;;;;5112985;27;20029;-53
2023/03/24 05:07:05;;;;;;;1.85;1.75;;;15.70;1.00;;;;;;5113226;28;20130;-51
2023/03/24 05:09:31;;;;;;;3.03;2.00;;;15.70;1.00;;;;;;5126729;27;20016;-56
2023/03/24 05:11:57;;;;;;;3.35;1.92;;;15.70;1.00;;;;;;5099384;28;20040;-54
2023/03/24 05:14:23;;;;;;;3.55;2.15;;;15.70;1.00;;;;;;5112929;28;20377;-55
2023/03/24 05:16:49;;;;;;;2.33;2.10;;;15.80;1.00;;;;;;5098844;28;20404;-56
2023/03/24 05:19:14;;;;;;;3.17;2.00;;;15.70;1.00;;;;;;5113598;28;20035;-53
2023/03/24 05:21:40;;;;;;;2.13;1.98;;;15.70;1.00;;;;;;5094948;28;20027;-55
2023/03/24 05:24:06;;;;;;;2.30;2.05;;;15.80;1.00;;;;;;5119969;28;20397;-55
2023/03/24 05:26:32;;;;;;;4.88;2.30;;;15.60;1.00;;;;;;5112991;28;20503;-55
2023/03/24 05:28:59;;;;;;;3.75;2.08;;;15.60;1.00;;;;;;5114413;28;20023;-53
2023/03/24 05:31:24;;;;;;;3.63;2.30;;;15.60;1.00;;;;;;5117134;28;20480;-55
2023/03/24 05:33:51;;;;;;;5.30;2.58;;;15.50;1.00;;;;;;5112752;28;20044;-54
2023/03/24 05:36:16;;;;;;;4.63;2.13;;;15.70;1.00;;;;;;5123083;28;20046;-53
2023/03/24 05:38:42;;;;;;;4.50;2.28;;;15.70;1.00;;;;;;5117229;28;20035;-54
2023/03/24 05:41:08;;;;;;;3.15;2.17;;;15.60;1.00;;;;;;5112923;28;20028;-53
2023/03/24 05:43:33;;;;;;;4.35;2.15;;;15.50;1.00;;;;;;5118015;28;20024;-55
2023/03/24 05:45:59;;;;;;;2.60;2.20;;;15.70;1.00;;;;;;5112992;28;20069;-55
2023/03/24 05:48:25;;;;;;;4.55;2.70;;;15.80;1.00;;;;;;5117029;28;20027;-53
2023/03/24 05:50:52;;;;;;;3.83;2.00;;;15.80;1.00;;;;;;5114502;28;20063;-51
2023/03/24 05:53:18;;;;;;;3.50;2.50;;;15.90;1.00;;;;;;5121074;28;20109;-54
2023/03/24 05:55:45;;;;;;;1.95;1.80;;;15.90;1.00;;;;;;5116379;28;20445;-55
2023/03/24 05:58:10;;;;;;;3.33;2.00;;;16.00;1.00;;;;;;5122175;27;20054;-50
2023/03/24 06:00:37;;;;;;;3.47;2.53;;;15.90;1.00;;;;;;5122353;27;20473;-54
2023/03/24 06:03:03;;;;;;;3.28;2.03;;;16.00;1.00;;;;;;5117824;27;20907;-51
2023/03/24 06:05:30;;;;;;;1.75;1.63;;;16.10;1.00;;;;;;5129855;27;20023;-51
2023/03/24 06:07:57;;;;;;;3.50;2.10;;;15.90;1.00;;;;;;5121795;27;20392;-52
2023/03/24 06:10:25;;;;;;;2.45;1.88;;;15.80;1.00;;;;;;5120540;27;20028;-52
2023/03/24 06:12:51;;;;;;;3.53;2.00;;;15.80;1.00;;;;;;5115886;28;20028;-54
2023/03/24 06:15:17;;;;;;;4.28;2.60;;;15.90;1.00;;;;;;5116359;27;20473;-56
2023/03/24 06:17:45;;;;;;;2.78;2.10;;;15.90;1.00;;;;;;5116655;28;20024;-54
2023/03/24 06:20:14;;;;;;;2.50;1.77;;;15.90;1.00;;;;;;5116309;27;20031;-54
2023/03/24 06:22:46;;;;;;;7.85;2.30;;;15.80;1.00;;;;;;5118929;27;20054;-54
2023/03/24 06:25:14;;;;;;;2.28;2.03;;;15.90;1.00;;;;;;5124897;27;20405;-51
2023/03/24 06:27:45;;;;;;;3.15;1.70;;;16.10;1.00;;;;;;5116352;28;20032;-57
2023/03/24 06:30:12;;;;;;;5.75;2.35;;;16.10;1.00;;;;;;5125547;27;20469;-55
2023/03/24 06:32:37;;;;;;;4.22;2.42;;;16.00;1.00;;;;;;5115942;28;20039;-52
2023/03/24 06:35:03;;;;;;;2.47;1.77;;;16.10;1.00;;;;;;5126605;27;20035;-55
2023/03/24 06:37:29;;;;;;;3.85;1.80;;;16.10;1.00;;;;;;5115304;27;20031;-56
2023/03/24 06:39:55;;;;;;;4.40;1.90;;;16.00;1.00;;;;;;5120874;27;20032;-56
2023/03/24 06:42:20;;;;;;;4.07;2.08;;;16.10;1.00;;;;;;5115801;28;20012;-56
2023/03/24 06:44:46;;;;;;;3.88;1.80;;;15.90;1.00;;;;;;5117486;27;20377;-54
2023/03/24 06:47:12;;;;;;;2.90;1.92;;;16.00;1.00;;;;;;5115414;27;20043;-52
2023/03/24 06:49:37;;;;;;;3.55;1.88;;;16.00;1.00;;;;;;5107561;28;20530;-55
2023/03/24 06:52:04;;;;;;;3.85;1.80;;;16.10;1.00;;;;;;5109814;27;20050;-53
2023/03/24 06:54:29;;;;;;;8.00;2.15;;;16.10;1.00;;;;;;5123964;27;20028;-54
2023/03/24 06:56:55;;;;;;;4.75;2.42;;;16.20;1.00;;;;;;5107945;27;20439;-54
2023/03/24 06:59:23;;;;;;;5.13;2.13;;;16.30;1.00;;;;;;5095087;28;20059;-57
2023/03/24 07:01:52;;;;;;;7.30;2.45;;;16.30;1.00;;;;;;5115201;27;20072;-56
2023/03/24 07:04:18;;;;;;;3.28;1.90;;;16.30;1.00;;;;;;5122869;27;20027;-53
2023/03/24 07:06:44;;;;;;;6.65;1.98;;;16.20;1.00;;;;;;5100545;28;20476;-54
2023/03/24 07:09:11;;;;;;;4.85;2.17;;;16.30;1.00;;;;;;5113203;27;20019;-57
2023/03/24 07:11:37;;;;;;;4.15;2.42;;;16.30;1.00;;;;;;5125824;27;20481;-56
2023/03/24 07:14:03;;;;;;;3.92;1.88;;;16.30;1.00;;;;;;5112691;27;20094;-55
2023/03/24 07:16:28;;;;;;;3.25;2.00;;;16.00;1.00;;;;;;5111332;28;20059;-56
2023/03/24 07:18:54;;;;;;;5.30;2.60;;;16.10;1.00;;;;;;5110492;27;20447;-54
2023/03/24 07:21:20;;;;;;;3.03;2.17;;;16.20;1.00;;;;;;5094822;28;20381;-55
2023/03/24 07:23:45;;;;;;;4.10;2.05;;;16.20;1.00;;;;;;5103207;28;20106;-55
2023/03/24 07:26:11;;;;;;;4.45;2.03;;;16.30;1.00;;;;;;5115223;28;20496;-54
2023/03/24 07:28:37;;;;;;;6.55;1.83;;;16.40;1.00;;;;;;5111913;27;20064;-56
2023/03/24 07:31:09;;;;;;;3.47;2.25;;;16.30;1.00;;;;;;5104323;28;20016;-56
2023/03/24 07:33:36;;;;;;;11.05;2.35;;;16.30;1.00;;;;;;5096340;28;20408;-56
2023/03/24 07:36:02;;;;;;;5.75;2.22;;;16.50;1.00;;;;;;5094716;28;20023;-56
2023/03/24 07:38:27;;;;;;;8.07;2.35;;;16.60;1.00;;;;;;5098878;28;20389;-53
2023/03/24 07:40:53;;;;;;;5.88;2.40;;;16.60;1.00;;;;;;5094454;28;20028;-55
2023/03/24 07:43:19;;;;;;;6.25;2.40;;;16.70;1.00;;;;;;5093262;28;20418;-52
2023/03/24 07:45:45;;;;;;;3.60;2.15;;;16.50;1.00;;;;;;5096393;28;20093;-51
2023/03/24 07:48:11;;;;;;;5.53;3.00;;;16.50;1.00;;;;;;5098006;28;20374;-56
2023/03/24 07:50:37;;;;;;;5.43;2.22;;;16.60;1.00;;;;;;5094229;28;20477;-56
2023/03/24 07:53:02;;;;;;;5.97;2.30;;;16.40;1.00;;;;;;5096454;28;20053;-55
2023/03/24 07:55:28;;;;;;;6.05;2.47;;;16.50;1.00;;;;;;5087638;28;20021;-57
2023/03/24 07:57:54;;;;;;;3.90;2.13;;;16.60;1.00;;;;;;5091799;28;20050;-53
2023/03/24 08:00:20;;;;;;;4.25;1.90;;;16.50;1.00;;;;;;5099918;28;20375;-66
2023/03/24 08:02:51;;;;;;;8.75;2.05;;;16.50;1.00;;;;;;5080118;28;20670;-66
2023/03/24 08:05:18;;;;;;;5.32;2.50;;;16.40;1.00;;;;;;5094317;28;20024;-61
2023/03/24 08:07:52;;;;;;;5.25;1.85;;;16.50;1.00;;;;;;5085096;28;20497;-64
2023/03/24 08:10:20;;;;;;;3.60;1.85;;;16.50;1.00;;;;;;5092660;28;20038;-62
2023/03/24 08:12:46;;;;;;;4.90;2.53;;;16.50;1.00;;;;;;5094908;28;20328;-62
2023/03/24 08:15:12;;;;;;;3.08;1.80;;;16.60;1.00;;;;;;5100177;28;20031;-57
2023/03/24 08:17:38;;;;;;;6.22;2.33;;;16.60;1.00;;;;;;5093104;28;20031;-63
2023/03/24 08:20:12;;;;;;;4.13;2.17;;;16.60;1.00;;;;;;5083406;28;20024;-61
2023/03/24 08:22:41;;;;;;;2.57;1.63;;;16.50;1.00;;;;;;5086376;28;20052;-62
2023/03/24 08:25:08;;;;;;;5.03;2.33;;;16.50;1.00;;;;;;5092379;28;20055;-53
2023/03/24 08:27:36;;;;;;;3.40;1.80;;;16.60;1.00;;;;;;5083497;28;20566;-59
2023/03/24 08:30:06;;;;;;;4.10;2.13;;;16.70;1.00;;;;;;5088620;28;21251;-48
2023/03/24 08:32:32;;;;;;;5.85;2.05;;;16.80;1.00;;;;;;5088937;28;20020;-52
2023/03/24 08:34:58;;;;;;;7.75;2.10;;;16.70;1.00;;;;;;5111750;28;20577;-60
2023/03/24 08:37:23;;;;;;;5.45;2.05;;;16.70;1.00;;;;;;5108943;28;20048;-60
2023/03/24 08:39:49;;;;;;;5.38;2.42;;;16.70;1.00;;;;;;5109125;28;20416;-60
2023/03/24 08:42:15;;;;;;;6.72;2.20;;;16.80;1.00;;;;;;5113481;28;20016;-53
2023/03/24 08:44:41;;;;;;;4.15;2.30;;;16.80;1.00;;;;;;5113064;28;20027;-53
2023/03/24 08:47:06;;;;;;;4.53;2.13;;;16.60;1.00;;;;;;5112793;28;20043;-57
2023/03/24 08:49:32;;;;;;;5.28;2.30;;;16.60;1.00;;;;;;5113046;28;20019;-52
2023/03/24 08:51:58;;;;;;;4.68;2.50;;;16.50;1.00;;;;;;5112615;28;20050;-55
2023/03/24 08:54:25;;;;;;;7.20;2.60;;;16.70;1.00;;;;;;5094056;28;20020;-47
2023/03/24 08:56:51;;;;;;;3.95;2.40;;;16.80;1.00;;;;;;5112646;28;20055;-57
2023/03/24 08:59:17;;;;;;;5.88;2.40;;;16.80;1.00;;;;;;5109236;28;20039;-49
2023/03/24 09:01:42;;;;;;;5.18;2.80;;;16.90;1.00;;;;;;5106966;28;20057;-64
2023/03/24 09:04:08;;;;;;;5.40;2.65;;;16.90;1.00;;;;;;5112436;28;20028;-60
2023/03/24 09:06:34;;;;;;;6.32;2.30;;;17.00;1.00;;;;;;5112252;28;20465;-63
2023/03/24 09:09:00;;;;;;;4.38;1.70;;;17.10;1.00;;;;;;5111376;28;20038;-59
2023/03/24 09:11:26;;;;;;;2.20;1.90;;;17.00;1.00;;;;;;5109760;28;20049;-62
2023/03/24 09:13:51;;;;;;;4.45;2.47;;;16.90;1.00;;;;;;5113999;28;20031;-60
2023/03/24 09:16:18;;;;;;;6.40;2.22;;;16.80;1.00;;;;;;5107543;28;20031;-53
2023/03/24 09:18:44;;;;;;;7.43;2.63;;;16.80;1.00;;;;;;5106174;28;20053;-57
2023/03/24 09:21:10;;;;;;;8.80;2.33;;;16.80;1.00;;;;;;5107093;28;20029;-60
2023/03/24 09:23:35;;;;;;;4.80;2.28;;;16.90;1.00;;;;;;5117376;28;20027;-63
2023/03/24 09:26:02;;;;;;;4.85;3.08;;;16.90;1.00;;;;;;5113098;28;20389;-64
2023/03/24 09:28:28;;;;;;;3.20;2.13;;;16.80;1.00;;;;;;5111284;28;20122;-68
2023/03/24 09:30:58;;;;;;;5.70;2.25;;;16.90;1.00;;;;;;5104672;28;20610;-62
2023/03/24 09:33:24;;;;;;;5.85;2.40;;;17.00;1.00;;;;;;5107847;28;20052;-68
2023/03/24 09:35:57;;;;;;;4.85;2.03;;;17.00;1.00;;;;;;5114196;27;20032;-63
2023/03/24 09:38:23;;;;;;;4.95;2.00;;;16.90;1.00;;;;;;5112569;27;20042;-54
2023/03/24 09:41:01;;;;;;;5.45;2.47;;;16.90;1.00;;;;;;5113652;27;20021;-64
2023/03/24 09:43:53;;;;;;;2.85;1.65;;;17.00;1.00;;;;;;5113696;27;20081;-61
2023/03/24 09:46:48;;;;;;;4.57;1.83;;;17.00;1.00;;;;;;5108018;28;20024;-63
2023/03/24 09:49:24;;;;;;;4.33;1.87;;;17.10;1.00;;;;;;5105418;27;20023;-61
2023/03/24 09:51:55;;;;;;;5.43;1.73;;;17.20;1.00;;;;;;5105897;28;20270;-65
2023/03/24 09:54:56;;;;;;;4.10;1.80;;;17.20;1.00;;;;;;5112240;27;20032;-66
2023/03/24 09:57:36;;;;;;;4.50;2.90;;;17.40;1.00;;;;;;5106842;27;20022;-63
2023/03/24 10:00:20;;;;;;;7.47;2.70;;;17.50;1.00;;;;;;5107070;27;20035;-60
2023/03/24 10:02:46;;;;;;;6.03;2.65;;;17.40;1.00;;;;;;5107993;27;20011;-46
2023/03/24 10:05:32;;;;;;;3.97;2.50;;;17.20;1.00;;;;;;5106937;28;20032;-50
2023/03/24 10:08:14;;;;;;;9.13;3.28;;;17.30;1.00;;;;;;5108596;27;20096;-50
2023/03/24 10:11:02;;;;;;;6.18;2.22;;;17.30;1.00;;;;;;5089790;27;20481;-59
2023/03/24 10:13:49;;;;;;;7.95;2.42;;;17.40;1.00;;;;;;5104290;28;20024;-63
2023/03/24 10:16:25;;;;;;;6.30;2.45;;;17.40;1.00;;;;;;5103058;28;20157;-64
2023/03/24 10:19:03;;;;;;;4.28;2.13;;;17.50;1.00;;;;;;5106418;27;20374;-63
2023/03/24 10:21:34;;;;;;;6.82;1.95;;;17.50;1.00;;;;;;5107433;28;20052;-65
2023/03/24 10:24:06;;;;;;;6.13;2.25;;;17.50;1.00;;;;;;5103074;28;20035;-64
2023/03/24 10:26:38;;;;;;;3.95;2.47;;;17.70;1.00;;;;;;5091897;28;20481;-65
2023/03/24 10:29:30;;;;;;;3.25;2.33;;;17.80;1.00;;;;;;5117261;27;20107;-64
2023/03/24 10:32:20;;;;;;;4.05;2.20;;;17.80;1.00;;;;;;5115325;28;20060;-62
2023/03/24 10:34:50;;;;;;;6.63;2.35;;;17.90;1.00;;;;;;5123774;27;20571;-63
2023/03/24 10:37:16;;;;;;;4.38;2.28;;;18.00;1.00;;;;;;5126588;27;20028;-63
2023/03/24 10:39:42;;;;;;;4.22;2.40;;;18.10;1.00;;;;;;5123958;27;20050;-62
2023/03/24 10:42:15;;;;;;;3.30;2.72;;;18.30;1.00;;;;;;5115924;27;20071;-63
2023/03/24 10:44:41;;;;;;;3.75;2.17;;;18.20;1.00;;;;;;5110530;28;20364;-62
2023/03/24 10:47:12;;;;;;;4.57;2.88;;;18.30;1.00;;;;;;5114977;28;20042;-63
2023/03/24 10:49:51;;;;;;;7.18;2.50;;;18.50;1.00;;;;;;5110558;28;20365;-63
2023/03/24 10:52:17;;;;;;;4.20;2.88;;;18.90;1.00;;;;;;5106734;28;20020;-62
2023/03/24 10:54:55;;;;;;;5.97;2.70;;;19.00;1.00;;;;;;5114524;28;20072;-62
2023/03/24 10:57:22;;;;;;;5.32;3.40;;;18.80;1.00;;;;;;5107773;28;20034;-62
2023/03/24 10:59:58;;;;;;;7.72;2.78;;;18.90;1.00;;;;;;5110247;28;20425;-63
2023/03/24 11:02:29;;;;;;;5.38;2.60;;;18.70;1.00;;;;;;5110253;28;20481;-63
2023/03/24 11:05:17;;;;;;;7.70;3.13;;;18.70;1.00;;;;;;5111638;28;20031;-63
2023/03/24 11:07:46;;;;;;;6.70;2.83;;;18.50;1.00;;;;;;5108258;28;20035;-63
2023/03/24 11:10:23;;;;;;;7.57;2.60;;;18.50;1.00;;;;;;5112555;28;20047;-65
2023/03/24 11:12:52;;;;;;;3.70;2.70;;;18.40;1.00;;;;;;5109813;28;20035;-63
2023/03/24 11:15:18;;;;;;;3.85;2.38;;;18.50;1.00;;;;;;5114460;28;20034;-63
2023/03/24 11:17:55;;;;;;;4.80;2.88;;;18.40;1.00;;;;;;5114488;28;20031;-63
2023/03/24 11:20:26;;;;;;;5.07;2.80;;;18.60;1.00;;;;;;5112379;28;20019;-63
2023/03/24 11:23:10;;;;;;;5.60;3.33;;;18.80;1.00;;;;;;5107870;28;20040;-63
2023/03/24 11:25:39;;;;;;;5.47;3.10;;;19.00;1.00;;;;;;5110470;28;20016;-63
2023/03/24 11:28:16;;;;;;;6.35;2.95;;;19.20;1.00;;;;;;5113198;28;20035;-63
2023/03/24 11:30:50;;;;;;;7.22;2.80;;;19.10;1.00;;;;;;5114079;28;20023;-63
2023/03/24 11:33:46;;;;;;;4.45;3.38;;;19.10;1.00;;;;;;5110509;28;20048;-64
2023/03/24 11:36:31;;;;;;;6.57;4.18;;;19.40;1.00;;;;;;5100966;28;20089;-63
2023/03/24 11:39:33;;;;;;;5.60;4.45;;;19.70;1.00;;;;;;5106098;28;20020;-63
2023/03/24 11:42:01;;;;;;;7.68;2.95;;;20.00;1.00;;;;;;5114176;28;20034;-63
2023/03/24 11:44:36;;;;;;;5.95;3.22;;;19.50;1.00;;;;;;5114080;28;20384;-63
2023/03/24 11:47:58;;;;;;;4.57;2.47;;;19.50;1.00;;;;;;5112492;28;20034;-63
2023/03/24 11:50:34;;;;;;;3.65;2.80;;;19.40;1.00;;;;;;5104637;28;20020;-63
2023/03/24 11:53:03;;;;;;;5.85;3.25;;;19.20;1.00;;;;;;5110478;28;20444;-64
2023/03/24 11:55:37;;;;;;;7.13;3.53;;;19.20;1.00;;;;;;5109783;28;20077;-65
2023/03/24 11:58:07;;;;;;;6.68;3.10;;;19.10;1.00;;;;;;5108777;28;20467;-64
2023/03/24 12:00:47;;;;;;;4.63;2.70;;;19.20;1.00;;;;;;5113611;28;20027;-64
2023/03/24 12:03:38;;;;;;;10.35;2.63;;;19.30;1.00;;;;;;5113887;28;20369;-64
2023/03/24 12:06:38;;;;;;;6.22;3.15;;;19.20;1.00;;;;;;5098896;28;20028;-63
2023/03/24 12:09:21;;;;;;;8.55;4.10;;;19.40;1.00;;;;;;5084208;28;20471;-63
2023/03/24 12:12:13;;;;;;;3.88;2.72;;;19.40;1.00;;;;;;5112308;28;20016;-63
2023/03/24 12:14:38;;;;;;;5.28;2.97;;;19.30;1.00;;;;;;5109557;28;20469;-64
2023/03/24 12:17:29;;;;;;;4.18;2.90;;;19.20;1.00;;;;;;5109650;28;20065;-64
2023/03/24 12:20:10;;;;;;;3.55;2.95;;;19.10;1.00;;;;;;5106971;28;20194;-64
2023/03/24 12:22:53;;;;;;;6.28;3.40;;;19.10;1.00;;;;;;5105892;28;20020;-64
2023/03/24 12:25:31;;;;;;;4.82;2.60;;;19.10;1.00;;;;;;5106492;28;20035;-64
2023/03/24 12:28:09;;;;;;;3.72;2.60;;;19.10;1.00;;;;;;5112562;28;20031;-62
2023/03/24 12:30:40;;;;;;;7.15;3.25;;;19.10;1.00;;;;;;5108942;28;20020;-62
2023/03/24 12:33:26;;;;;;;5.20;2.70;;;19.20;1.00;;;;;;5112344;28;20079;-62
2023/03/24 12:36:08;;;;;;;5.55;2.92;;;19.30;1.00;;;;;;5109996;28;20032;-64
2023/03/24 12:38:46;;;;;;;3.20;2.90;;;19.20;1.00;;;;;;5110884;28;20077;-64
2023/03/24 12:41:23;;;;;;;4.18;2.80;;;19.20;1.00;;;;;;5111184;28;20028;-64
2023/03/24 12:44:11;;;;;;;5.22;2.72;;;19.10;1.00;;;;;;5109637;28;20032;-64
2023/03/24 12:46:46;;;;;;;9.30;2.75;;;19.20;1.00;;;;;;5104819;28;20084;-63
2023/03/24 12:49:36;;;;;;;4.70;3.33;;;19.20;1.00;;;;;;5108813;28;20030;-63
2023/03/24 12:52:08;;;;;;;7.70;3.00;;;19.10;1.00;;;;;;5112869;28;20023;-63
2023/03/24 12:54:46;;;;;;;3.80;3.22;;;19.20;1.00;;;;;;5092983;28;20024;-64
2023/03/24 12:57:17;;;;;;;6.65;3.13;;;19.00;1.00;;;;;;5110531;28;20081;-64
2023/03/24 12:59:59;;;;;;;4.90;2.97;;;19.00;1.00;;;;;;5106717;28;20081;-64
2023/03/24 13:02:44;;;;;;;5.93;3.08;;;19.00;1.00;;;;;;5108676;28;20056;-63
2023/03/24 13:05:17;;;;;;;5.28;2.70;;;19.00;1.00;;;;;;5111595;28;20032;-63
2023/03/24 13:07:46;;;;;;;7.07;2.50;;;19.00;1.00;;;;;;5104502;28;20485;-63
2023/03/24 13:10:24;;;;;;;3.15;2.55;;;19.10;1.00;;;;;;5111973;28;20024;-63
2023/03/24 13:13:14;;;;;;;4.15;2.92;;;19.10;1.00;;;;;;5109061;28;20027;-63
2023/03/24 13:15:55;;;;;;;3.55;2.80;;;19.10;1.00;;;;;;5105391;28;20106;-64
2023/03/24 13:18:38;;;;;;;6.28;2.92;;;19.00;1.00;;;;;;5106054;28;20031;-63
2023/03/24 13:21:04;;;;;;;7.57;3.88;;;19.10;1.00;;;;;;5109120;28;20038;-60
2023/03/24 13:23:44;;;;;;;7.13;3.92;;;19.20;1.00;;;;;;5109873;28;20076;-62
2023/03/24 13:26:52;;;;;;;4.63;3.40;;;27.80;1.00;;;;;;5110317;28;20019;-63